sensor_id;sensor_type;location;lat;lon;timestamp;temperature;humidity
23669;DHT22;12011;47.422;15.018;2023-06-14T00:00:40;14.30;93.40
23669;DHT22;12011;47.422;15.018;2023-06-14T00:03:11;14.30;94.20
23669;DHT22;12011;47.422;15.018;2023-06-14T00:05:43;14.20;98.20
23669;DHT22;12011;47.422;15.018;2023-06-14T00:08:14;14.20;99.90
23669;DHT22;12011;47.422;15.018;2023-06-14T00:10:45;14.10;99.90
23669;DHT22;12011;47.422;15.018;2023-06-14T00:13:17;14.10;99.90
23669;DHT22;12011;47.422;15.018;2023-06-14T00:15:47;14.00;99.90
23669;DHT22;12011;47.422;15.018;2023-06-14T00:18:19;13.90;99.90
23669;DHT22;12011;47.422;15.018;2023-06-14T00:20:50;13.90;99.90
23669;DHT22;12011;47.422;15.018;2023-06-14T00:23:20;13.90;99.90
23669;DHT22;12011;47.422;15.018;2023-06-14T00:25:49;13.90;99.90
23669;DHT22;12011;47.422;15.018;2023-06-14T00:28:22;13.90;97.40
23669;DHT22;12011;47.422;15.018;2023-06-14T00:30:51;13.90;94.70
23669;DHT22;12011;47.422;15.018;2023-06-14T00:33:21;14.00;92.30
23669;DHT22;12011;47.422;15.018;2023-06-14T00:35:52;14.00;93.70
23669;DHT22;12011;47.422;15.018;2023-06-14T00:38:22;14.10;94.00
23669;DHT22;12011;47.422;15.018;2023-06-14T00:40:52;14.10;98.60
23669;DHT22;12011;47.422;15.018;2023-06-14T00:43:24;14.00;95.60
23669;DHT22;12011;47.422;15.018;2023-06-14T00:45:53;14.00;96.90
23669;DHT22;12011;47.422;15.018;2023-06-14T00:48:24;13.90;99.70
23669;DHT22;12011;47.422;15.018;2023-06-14T00:50:54;14.00;98.20
23669;DHT22;12011;47.422;15.018;2023-06-14T00:53:24;14.00;97.30
23669;DHT22;12011;47.422;15.018;2023-06-14T00:55:55;14.00;93.80
23669;DHT22;12011;47.422;15.018;2023-06-14T00:58:28;14.10;94.10
23669;DHT22;12011;47.422;15.018;2023-06-14T01:01:01;14.00;99.90
23669;DHT22;12011;47.422;15.018;2023-06-14T01:03:33;14.00;99.90
23669;DHT22;12011;47.422;15.018;2023-06-14T01:06:15;13.90;99.90
23669;DHT22;12011;47.422;15.018;2023-06-14T01:09:06;13.90;99.90
23669;DHT22;12011;47.422;15.018;2023-06-14T01:11:48;13.80;99.90
23669;DHT22;12011;47.422;15.018;2023-06-14T01:14:26;13.80;99.90
23669;DHT22;12011;47.422;15.018;2023-06-14T01:16:58;13.80;99.90
23669;DHT22;12011;47.422;15.018;2023-06-14T01:19:29;13.80;99.90
23669;DHT22;12011;47.422;15.018;2023-06-14T01:22:01;13.80;97.70
23669;DHT22;12011;47.422;15.018;2023-06-14T01:24:34;13.80;98.10
23669;DHT22;12011;47.422;15.018;2023-06-14T01:27:06;13.90;96.80
23669;DHT22;12011;47.422;15.018;2023-06-14T01:29:37;13.90;99.90
23669;DHT22;12011;47.422;15.018;2023-06-14T01:32:15;13.80;99.90
23669;DHT22;12011;47.422;15.018;2023-06-14T01:34:45;13.80;98.70
23669;DHT22;12011;47.422;15.018;2023-06-14T01:37:17;13.80;97.30
23669;DHT22;12011;47.422;15.018;2023-06-14T01:39:51;13.80;99.90
23669;DHT22;12011;47.422;15.018;2023-06-14T01:42:21;13.70;99.90
23669;DHT22;12011;47.422;15.018;2023-06-14T01:44:54;13.70;99.70
23669;DHT22;12011;47.422;15.018;2023-06-14T01:47:25;13.80;97.30
23669;DHT22;12011;47.422;15.018;2023-06-14T01:49:55;13.80;96.60
23669;DHT22;12011;47.422;15.018;2023-06-14T01:52:27;13.80;99.90
23669;DHT22;12011;47.422;15.018;2023-06-14T01:55:00;13.70;99.90
23669;DHT22;12011;47.422;15.018;2023-06-14T01:57:30;13.60;99.90
23669;DHT22;12011;47.422;15.018;2023-06-14T02:00:00;13.50;99.90
23669;DHT22;12011;47.422;15.018;2023-06-14T02:02:39;13.50;99.90
23669;DHT22;12011;47.422;15.018;2023-06-14T02:05:10;13.40;99.90
23669;DHT22;12011;47.422;15.018;2023-06-14T02:07:41;13.50;97.70
23669;DHT22;12011;47.422;15.018;2023-06-14T02:10:14;13.50;97.60
23669;DHT22;12011;47.422;15.018;2023-06-14T02:12:44;13.50;97.60
23669;DHT22;12011;47.422;15.018;2023-06-14T02:15:14;13.60;99.90
23669;DHT22;12011;47.422;15.018;2023-06-14T02:17:48;13.60;99.90
23669;DHT22;12011;47.422;15.018;2023-06-14T02:20:18;13.60;98.90
23669;DHT22;12011;47.422;15.018;2023-06-14T02:22:48;13.60;96.40
23669;DHT22;12011;47.422;15.018;2023-06-14T02:25:20;13.70;97.60
23669;DHT22;12011;47.422;15.018;2023-06-14T02:27:50;13.50;96.80
23669;DHT22;12011;47.422;15.018;2023-06-14T02:30:20;13.70;96.50
23669;DHT22;12011;47.422;15.018;2023-06-14T02:32:49;13.70;97.20
23669;DHT22;12011;47.422;15.018;2023-06-14T02:35:20;13.60;99.90
23669;DHT22;12011;47.422;15.018;2023-06-14T02:37:52;13.60;99.90
23669;DHT22;12011;47.422;15.018;2023-06-14T02:40:25;13.60;99.90
23669;DHT22;12011;47.422;15.018;2023-06-14T02:42:57;13.40;99.90
23669;DHT22;12011;47.422;15.018;2023-06-14T02:45:28;13.40;99.90
23669;DHT22;12011;47.422;15.018;2023-06-14T02:47:58;13.50;99.90
23669;DHT22;12011;47.422;15.018;2023-06-14T02:50:27;13.50;99.90
23669;DHT22;12011;47.422;15.018;2023-06-14T02:52:57;13.50;99.90
23669;DHT22;12011;47.422;15.018;2023-06-14T02:55:29;13.50;99.80
23669;DHT22;12011;47.422;15.018;2023-06-14T02:58:00;13.50;99.90
23669;DHT22;12011;47.422;15.018;2023-06-14T03:00:30;13.50;99.90
23669;DHT22;12011;47.422;15.018;2023-06-14T03:03:02;13.50;99.90
23669;DHT22;12011;47.422;15.018;2023-06-14T03:05:42;13.40;99.90
23669;DHT22;12011;47.422;15.018;2023-06-14T03:08:14;13.50;99.90
23669;DHT22;12011;47.422;15.018;2023-06-14T03:10:49;13.50;99.90
23669;DHT22;12011;47.422;15.018;2023-06-14T03:13:19;13.40;99.90
23669;DHT22;12011;47.422;15.018;2023-06-14T03:15:51;13.40;99.90
23669;DHT22;12011;47.422;15.018;2023-06-14T03:18:23;13.50;99.90
23669;DHT22;12011;47.422;15.018;2023-06-14T03:20:53;13.50;99.90
23669;DHT22;12011;47.422;15.018;2023-06-14T03:23:25;13.50;99.90
23669;DHT22;12011;47.422;15.018;2023-06-14T03:25:58;13.50;99.90
23669;DHT22;12011;47.422;15.018;2023-06-14T03:28:28;13.40;99.90
23669;DHT22;12011;47.422;15.018;2023-06-14T03:30:58;13.40;99.90
23669;DHT22;12011;47.422;15.018;2023-06-14T03:33:31;13.40;99.90
23669;DHT22;12011;47.422;15.018;2023-06-14T03:36:01;13.30;99.90
23669;DHT22;12011;47.422;15.018;2023-06-14T03:38:32;13.30;99.90
23669;DHT22;12011;47.422;15.018;2023-06-14T03:41:07;13.30;99.90
23669;DHT22;12011;47.422;15.018;2023-06-14T03:43:37;13.30;99.90
23669;DHT22;12011;47.422;15.018;2023-06-14T03:46:07;13.30;99.90
23669;DHT22;12011;47.422;15.018;2023-06-14T03:48:37;13.40;98.60
23669;DHT22;12011;47.422;15.018;2023-06-14T03:51:07;13.50;99.90
23669;DHT22;12011;47.422;15.018;2023-06-14T03:53:38;13.50;99.90
23669;DHT22;12011;47.422;15.018;2023-06-14T03:56:10;13.50;98.20
23669;DHT22;12011;47.422;15.018;2023-06-14T03:58:43;13.60;99.90
23669;DHT22;12011;47.422;15.018;2023-06-14T04:01:14;13.60;99.60
23669;DHT22;12011;47.422;15.018;2023-06-14T04:03:44;13.70;98.10
23669;DHT22;12011;47.422;15.018;2023-06-14T04:06:15;13.70;97.20
23669;DHT22;12011;47.422;15.018;2023-06-14T04:08:46;13.80;96.00
23669;DHT22;12011;47.422;15.018;2023-06-14T04:11:18;13.80;99.90
23669;DHT22;12011;47.422;15.018;2023-06-14T04:13:47;13.80;98.50
23669;DHT22;12011;47.422;15.018;2023-06-14T04:16:20;13.80;96.30
23669;DHT22;12011;47.422;15.018;2023-06-14T04:18:49;13.80;98.70
23669;DHT22;12011;47.422;15.018;2023-06-14T04:21:22;13.90;99.90
23669;DHT22;12011;47.422;15.018;2023-06-14T04:23:53;13.90;96.40
23669;DHT22;12011;47.422;15.018;2023-06-14T04:26:29;14.00;95.30
23669;DHT22;12011;47.422;15.018;2023-06-14T04:28:59;14.00;97.20
23669;DHT22;12011;47.422;15.018;2023-06-14T04:31:32;14.10;96.30
23669;DHT22;12011;47.422;15.018;2023-06-14T04:34:04;14.20;95.20
23669;DHT22;12011;47.422;15.018;2023-06-14T04:36:35;14.20;95.60
23669;DHT22;12011;47.422;15.018;2023-06-14T04:39:08;14.30;94.20
23669;DHT22;12011;47.422;15.018;2023-06-14T04:41:42;14.40;93.10
23669;DHT22;12011;47.422;15.018;2023-06-14T04:44:13;14.30;96.10
23669;DHT22;12011;47.422;15.018;2023-06-14T04:46:46;14.30;94.40
23669;DHT22;12011;47.422;15.018;2023-06-14T04:49:20;14.20;95.50
23669;DHT22;12011;47.422;15.018;2023-06-14T04:51:50;14.20;97.20
23669;DHT22;12011;47.422;15.018;2023-06-14T04:54:24;14.20;95.50
23669;DHT22;12011;47.422;15.018;2023-06-14T04:57:00;14.10;95.70
23669;DHT22;12011;47.422;15.018;2023-06-14T04:59:30;14.10;94.80
23669;DHT22;12011;47.422;15.018;2023-06-14T05:02:02;14.10;96.40
23669;DHT22;12011;47.422;15.018;2023-06-14T05:04:33;14.20;97.80
23669;DHT22;12011;47.422;15.018;2023-06-14T05:07:06;14.20;93.80
23669;DHT22;12011;47.422;15.018;2023-06-14T05:09:37;14.30;92.90
23669;DHT22;12011;47.422;15.018;2023-06-14T05:12:13;14.30;94.90
23669;DHT22;12011;47.422;15.018;2023-06-14T05:14:45;14.40;93.10
23669;DHT22;12011;47.422;15.018;2023-06-14T05:17:17;14.40;92.80
23669;DHT22;12011;47.422;15.018;2023-06-14T05:19:48;14.50;91.70
23669;DHT22;12011;47.422;15.018;2023-06-14T05:22:17;14.70;92.00
23669;DHT22;12011;47.422;15.018;2023-06-14T05:24:47;14.80;93.30
23669;DHT22;12011;47.422;15.018;2023-06-14T05:27:19;14.90;92.90
23669;DHT22;12011;47.422;15.018;2023-06-14T05:29:50;15.00;91.40
23669;DHT22;12011;47.422;15.018;2023-06-14T05:32:22;15.00;93.10
23669;DHT22;12011;47.422;15.018;2023-06-14T05:34:51;15.10;92.50
23669;DHT22;12011;47.422;15.018;2023-06-14T05:37:22;15.10;95.00
23669;DHT22;12011;47.422;15.018;2023-06-14T05:39:52;15.10;94.70
23669;DHT22;12011;47.422;15.018;2023-06-14T05:42:24;15.10;95.20
23669;DHT22;12011;47.422;15.018;2023-06-14T05:44:54;15.10;94.20
23669;DHT22;12011;47.422;15.018;2023-06-14T05:47:26;15.20;90.70
23669;DHT22;12011;47.422;15.018;2023-06-14T05:49:58;15.20;91.00
23669;DHT22;12011;47.422;15.018;2023-06-14T05:52:28;15.40;90.30
23669;DHT22;12011;47.422;15.018;2023-06-14T05:54:58;15.40;89.80
23669;DHT22;12011;47.422;15.018;2023-06-14T05:57:30;15.30;91.70
23669;DHT22;12011;47.422;15.018;2023-06-14T05:59:59;15.40;90.60
23669;DHT22;12011;47.422;15.018;2023-06-14T06:02:38;15.40;88.40
23669;DHT22;12011;47.422;15.018;2023-06-14T06:05:09;15.20;89.10
23669;DHT22;12011;47.422;15.018;2023-06-14T06:07:39;15.20;89.90
23669;DHT22;12011;47.422;15.018;2023-06-14T06:10:10;15.20;88.80
23669;DHT22;12011;47.422;15.018;2023-06-14T06:12:44;15.30;88.70
23669;DHT22;12011;47.422;15.018;2023-06-14T06:15:13;15.30;92.50
23669;DHT22;12011;47.422;15.018;2023-06-14T06:17:43;15.50;89.30
23669;DHT22;12011;47.422;15.018;2023-06-14T06:20:15;15.60;88.30
23669;DHT22;12011;47.422;15.018;2023-06-14T06:22:58;15.70;86.40
23669;DHT22;12011;47.422;15.018;2023-06-14T06:25:38;16.00;83.40
23669;DHT22;12011;47.422;15.018;2023-06-14T06:28:19;16.30;84.30
23669;DHT22;12011;47.422;15.018;2023-06-14T06:30:49;16.70;83.20
23669;DHT22;12011;47.422;15.018;2023-06-14T06:33:19;16.90;81.90
23669;DHT22;12011;47.422;15.018;2023-06-14T06:35:49;16.80;85.00
23669;DHT22;12011;47.422;15.018;2023-06-14T06:38:19;16.70;85.60
23669;DHT22;12011;47.422;15.018;2023-06-14T06:40:48;16.50;81.40
23669;DHT22;12011;47.422;15.018;2023-06-14T06:43:22;16.50;75.70
23669;DHT22;12011;47.422;15.018;2023-06-14T06:45:52;16.40;87.10
23669;DHT22;12011;47.422;15.018;2023-06-14T06:48:22;16.60;82.40
23669;DHT22;12011;47.422;15.018;2023-06-14T06:50:51;16.60;84.80
23669;DHT22;12011;47.422;15.018;2023-06-14T06:53:21;16.50;81.10
23669;DHT22;12011;47.422;15.018;2023-06-14T06:55:50;16.50;84.00
23669;DHT22;12011;47.422;15.018;2023-06-14T06:58:23;16.50;88.60
23669;DHT22;12011;47.422;15.018;2023-06-14T07:00:53;16.70;83.70
23669;DHT22;12011;47.422;15.018;2023-06-14T07:03:22;16.60;78.00
23669;DHT22;12011;47.422;15.018;2023-06-14T07:05:52;16.80;83.50
23669;DHT22;12011;47.422;15.018;2023-06-14T07:08:22;17.10;87.70
23669;DHT22;12011;47.422;15.018;2023-06-14T07:10:51;17.20;75.70
23669;DHT22;12011;47.422;15.018;2023-06-14T07:13:24;17.50;89.40
23669;DHT22;12011;47.422;15.018;2023-06-14T07:15:54;17.80;76.60
23669;DHT22;12011;47.422;15.018;2023-06-14T07:18:24;18.20;79.60
23669;DHT22;12011;47.422;15.018;2023-06-14T07:20:54;18.00;78.10
23669;DHT22;12011;47.422;15.018;2023-06-14T07:23:23;17.70;80.70
23669;DHT22;12011;47.422;15.018;2023-06-14T07:25:53;17.30;70.70
23669;DHT22;12011;47.422;15.018;2023-06-14T07:28:25;17.30;75.50
23669;DHT22;12011;47.422;15.018;2023-06-14T07:30:54;17.20;76.50
23669;DHT22;12011;47.422;15.018;2023-06-14T07:33:24;17.10;80.40
23669;DHT22;12011;47.422;15.018;2023-06-14T07:35:54;16.90;87.40
23669;DHT22;12011;47.422;15.018;2023-06-14T07:38:23;16.90;87.80
23669;DHT22;12011;47.422;15.018;2023-06-14T07:40:53;16.80;82.70
23669;DHT22;12011;47.422;15.018;2023-06-14T07:43:25;16.90;90.70
23669;DHT22;12011;47.422;15.018;2023-06-14T07:45:55;17.00;82.10
23669;DHT22;12011;47.422;15.018;2023-06-14T07:48:27;17.10;86.60
23669;DHT22;12011;47.422;15.018;2023-06-14T07:50:57;17.20;76.90
23669;DHT22;12011;47.422;15.018;2023-06-14T07:53:30;17.40;79.30
23669;DHT22;12011;47.422;15.018;2023-06-14T07:55:59;17.30;76.40
23669;DHT22;12011;47.422;15.018;2023-06-14T07:58:31;17.00;85.20
23669;DHT22;12011;47.422;15.018;2023-06-14T08:01:01;17.00;88.50
23669;DHT22;12011;47.422;15.018;2023-06-14T08:03:32;16.90;86.80
23669;DHT22;12011;47.422;15.018;2023-06-14T08:06:02;17.00;81.90
23669;DHT22;12011;47.422;15.018;2023-06-14T08:08:33;16.90;90.30
23669;DHT22;12011;47.422;15.018;2023-06-14T08:11:03;17.00;80.50
23669;DHT22;12011;47.422;15.018;2023-06-14T08:13:35;17.10;79.20
23669;DHT22;12011;47.422;15.018;2023-06-14T08:16:07;17.50;88.30
23669;DHT22;12011;47.422;15.018;2023-06-14T08:18:37;17.90;83.30
23669;DHT22;12011;47.422;15.018;2023-06-14T08:21:07;18.30;87.20
23669;DHT22;12011;47.422;15.018;2023-06-14T08:23:36;18.20;75.30
23669;DHT22;12011;47.422;15.018;2023-06-14T08:26:06;17.70;88.80
23669;DHT22;12011;47.422;15.018;2023-06-14T08:28:38;17.30;80.50
23669;DHT22;12011;47.422;15.018;2023-06-14T08:31:14;16.90;80.10
23669;DHT22;12011;47.422;15.018;2023-06-14T08:33:52;16.80;84.70
23669;DHT22;12011;47.422;15.018;2023-06-14T08:36:21;16.30;87.70
23669;DHT22;12011;47.422;15.018;2023-06-14T08:38:51;16.20;90.00
23669;DHT22;12011;47.422;15.018;2023-06-14T08:41:22;15.80;85.90
23669;DHT22;12011;47.422;15.018;2023-06-14T08:43:57;15.90;90.60
23669;DHT22;12011;47.422;15.018;2023-06-14T08:46:26;15.70;89.40
23669;DHT22;12011;47.422;15.018;2023-06-14T08:48:56;15.70;88.00
23669;DHT22;12011;47.422;15.018;2023-06-14T08:51:26;15.90;90.40
23669;DHT22;12011;47.422;15.018;2023-06-14T08:54:00;15.70;88.60
23669;DHT22;12011;47.422;15.018;2023-06-14T08:56:31;15.60;91.70
23669;DHT22;12011;47.422;15.018;2023-06-14T08:59:04;15.60;92.00
23669;DHT22;12011;47.422;15.018;2023-06-14T09:01:36;15.60;93.30
23669;DHT22;12011;47.422;15.018;2023-06-14T09:04:06;15.70;90.20
23669;DHT22;12011;47.422;15.018;2023-06-14T09:06:36;15.60;91.60
23669;DHT22;12011;47.422;15.018;2023-06-14T09:09:06;15.60;92.80
23669;DHT22;12011;47.422;15.018;2023-06-14T09:11:36;15.80;95.70
23669;DHT22;12011;47.422;15.018;2023-06-14T09:14:08;16.10;91.40
23669;DHT22;12011;47.422;15.018;2023-06-14T09:16:38;16.60;99.30
23669;DHT22;12011;47.422;15.018;2023-06-14T09:19:09;16.70;91.90
23669;DHT22;12011;47.422;15.018;2023-06-14T09:21:43;16.50;90.70
23669;DHT22;12011;47.422;15.018;2023-06-14T09:24:16;16.70;92.60
23669;DHT22;12011;47.422;15.018;2023-06-14T09:26:47;17.20;96.40
23669;DHT22;12011;47.422;15.018;2023-06-14T09:29:20;17.30;90.40
23669;DHT22;12011;47.422;15.018;2023-06-14T09:31:51;16.70;89.70
23669;DHT22;12011;47.422;15.018;2023-06-14T09:34:21;16.80;91.70
23669;DHT22;12011;47.422;15.018;2023-06-14T09:36:52;16.50;95.60
23669;DHT22;12011;47.422;15.018;2023-06-14T09:39:21;16.50;94.60
23669;DHT22;12011;47.422;15.018;2023-06-14T09:41:51;16.20;93.80
23669;DHT22;12011;47.422;15.018;2023-06-14T09:44:26;15.80;95.50
23669;DHT22;12011;47.422;15.018;2023-06-14T09:46:57;15.50;94.40
23669;DHT22;12011;47.422;15.018;2023-06-14T09:49:27;15.20;94.20
23669;DHT22;12011;47.422;15.018;2023-06-14T09:51:59;14.90;94.30
23669;DHT22;12011;47.422;15.018;2023-06-14T09:54:30;14.80;95.10
23669;DHT22;12011;47.422;15.018;2023-06-14T09:57:03;14.70;96.70
23669;DHT22;12011;47.422;15.018;2023-06-14T09:59:41;14.60;99.90
23669;DHT22;12011;47.422;15.018;2023-06-14T10:02:18;14.60;99.90
23669;DHT22;12011;47.422;15.018;2023-06-14T10:04:58;14.80;98.90
23669;DHT22;12011;47.422;15.018;2023-06-14T10:07:36;14.80;97.70
23669;DHT22;12011;47.422;15.018;2023-06-14T10:10:09;15.00;99.00
23669;DHT22;12011;47.422;15.018;2023-06-14T10:12:39;15.10;99.10
23669;DHT22;12011;47.422;15.018;2023-06-14T10:15:19;15.30;99.90
23669;DHT22;12011;47.422;15.018;2023-06-14T10:17:59;15.50;98.80
23669;DHT22;12011;47.422;15.018;2023-06-14T10:20:37;15.50;97.40
23669;DHT22;12011;47.422;15.018;2023-06-14T10:23:16;15.80;99.40
23669;DHT22;12011;47.422;15.018;2023-06-14T10:25:50;16.80;94.20
23669;DHT22;12011;47.422;15.018;2023-06-14T10:28:26;17.20;95.60
23669;DHT22;12011;47.422;15.018;2023-06-14T10:31:07;17.50;92.00
23669;DHT22;12011;47.422;15.018;2023-06-14T10:33:41;17.70;94.30
23669;DHT22;12011;47.422;15.018;2023-06-14T10:36:26;17.70;88.40
23669;DHT22;12011;47.422;15.018;2023-06-14T10:38:58;18.00;91.80
23669;DHT22;12011;47.422;15.018;2023-06-14T10:41:29;18.20;90.90
23669;DHT22;12011;47.422;15.018;2023-06-14T10:47:26;19.70;93.20
23669;DHT22;12011;47.422;15.018;2023-06-14T10:50:04;19.00;90.80
23669;DHT22;12011;47.422;15.018;2023-06-14T10:52:37;18.90;94.00
23669;DHT22;12011;47.422;15.018;2023-06-14T10:55:09;18.70;91.30
23669;DHT22;12011;47.422;15.018;2023-06-14T10:57:42;18.40;90.90
23669;DHT22;12011;47.422;15.018;2023-06-14T11:00:18;18.00;91.20
23669;DHT22;12011;47.422;15.018;2023-06-14T11:06:22;19.10;93.50
23669;DHT22;12011;47.422;15.018;2023-06-14T11:09:28;18.70;89.90
23669;DHT22;12011;47.422;15.018;2023-06-14T11:12:16;18.50;90.00
23669;DHT22;12011;47.422;15.018;2023-06-14T11:14:47;18.20;90.50
23669;DHT22;12011;47.422;15.018;2023-06-14T11:17:17;18.00;89.70
23669;DHT22;12011;47.422;15.018;2023-06-14T11:19:49;18.00;91.40
23669;DHT22;12011;47.422;15.018;2023-06-14T11:22:18;18.20;93.10
23669;DHT22;12011;47.422;15.018;2023-06-14T11:24:48;18.30;90.60
23669;DHT22;12011;47.422;15.018;2023-06-14T11:27:17;18.40;86.90
23669;DHT22;12011;47.422;15.018;2023-06-14T11:29:50;18.50;92.60
23669;DHT22;12011;47.422;15.018;2023-06-14T11:32:20;19.50;81.70
23669;DHT22;12011;47.422;15.018;2023-06-14T11:34:52;20.70;84.30
23669;DHT22;12011;47.422;15.018;2023-06-14T11:37:22;21.60;73.50
23669;DHT22;12011;47.422;15.018;2023-06-14T11:39:52;22.10;66.70
23669;DHT22;12011;47.422;15.018;2023-06-14T11:42:21;22.60;60.10
23669;DHT22;12011;47.422;15.018;2023-06-14T11:44:51;22.40;61.50
23669;DHT22;12011;47.422;15.018;2023-06-14T11:47:21;22.50;62.70
23669;DHT22;12011;47.422;15.018;2023-06-14T11:49:53;22.00;61.20
23669;DHT22;12011;47.422;15.018;2023-06-14T11:52:23;22.00;63.90
23669;DHT22;12011;47.422;15.018;2023-06-14T11:54:53;22.20;72.20
23669;DHT22;12011;47.422;15.018;2023-06-14T11:57:23;22.30;72.50
23669;DHT22;12011;47.422;15.018;2023-06-14T11:59:55;22.00;55.40
23669;DHT22;12011;47.422;15.018;2023-06-14T12:02:26;21.80;59.80
23669;DHT22;12011;47.422;15.018;2023-06-14T12:05:05;22.20;65.60
23669;DHT22;12011;47.422;15.018;2023-06-14T12:07:37;22.40;60.00
23669;DHT22;12011;47.422;15.018;2023-06-14T12:10:08;22.10;57.80
23669;DHT22;12011;47.422;15.018;2023-06-14T12:12:40;23.00;68.70
23669;DHT22;12011;47.422;15.018;2023-06-14T12:15:10;23.00;59.50
23669;DHT22;12011;47.422;15.018;2023-06-14T12:17:42;22.70;55.30
23669;DHT22;12011;47.422;15.018;2023-06-14T12:20:15;22.50;61.40
23669;DHT22;12011;47.422;15.018;2023-06-14T12:22:51;22.90;58.40
23669;DHT22;12011;47.422;15.018;2023-06-14T12:25:30;22.20;55.70
23669;DHT22;12011;47.422;15.018;2023-06-14T12:28:05;22.20;58.60
23669;DHT22;12011;47.422;15.018;2023-06-14T12:30:38;22.20;61.80
23669;DHT22;12011;47.422;15.018;2023-06-14T12:33:07;21.60;58.50
23669;DHT22;12011;47.422;15.018;2023-06-14T12:35:40;21.10;60.30
23669;DHT22;12011;47.422;15.018;2023-06-14T12:38:10;20.70;60.50
23669;DHT22;12011;47.422;15.018;2023-06-14T12:40:43;21.70;76.70
23669;DHT22;12011;47.422;15.018;2023-06-14T12:43:13;21.80;60.40
23669;DHT22;12011;47.422;15.018;2023-06-14T12:45:42;21.60;65.50
23669;DHT22;12011;47.422;15.018;2023-06-14T12:48:14;21.60;66.70
23669;DHT22;12011;47.422;15.018;2023-06-14T12:53:17;20.80;61.00
23669;DHT22;12011;47.422;15.018;2023-06-14T12:55:47;20.40;74.50
23669;DHT22;12011;47.422;15.018;2023-06-14T12:58:17;20.10;69.30
23669;DHT22;12011;47.422;15.018;2023-06-14T13:00:47;19.80;72.30
23669;DHT22;12011;47.422;15.018;2023-06-14T13:03:16;19.50;68.40
23669;DHT22;12011;47.422;15.018;2023-06-14T13:05:49;19.40;84.20
23669;DHT22;12011;47.422;15.018;2023-06-14T13:08:18;19.40;78.70
23669;DHT22;12011;47.422;15.018;2023-06-14T13:10:48;19.40;86.90
23669;DHT22;12011;47.422;15.018;2023-06-14T13:13:18;19.40;72.60
23669;DHT22;12011;47.422;15.018;2023-06-14T13:15:50;19.40;71.20
23669;DHT22;12011;47.422;15.018;2023-06-14T13:18:19;19.40;83.80
23669;DHT22;12011;47.422;15.018;2023-06-14T13:20:52;19.60;87.60
23669;DHT22;12011;47.422;15.018;2023-06-14T13:23:21;19.50;72.50
23669;DHT22;12011;47.422;15.018;2023-06-14T13:25:51;19.70;82.70
23669;DHT22;12011;47.422;15.018;2023-06-14T13:28:21;19.60;85.70
23669;DHT22;12011;47.422;15.018;2023-06-14T13:30:50;19.70;75.20
23669;DHT22;12011;47.422;15.018;2023-06-14T13:33:22;19.70;78.80
23669;DHT22;12011;47.422;15.018;2023-06-14T13:35:54;20.10;89.20
23669;DHT22;12011;47.422;15.018;2023-06-14T13:38:24;19.90;77.90
23669;DHT22;12011;47.422;15.018;2023-06-14T13:40:53;19.90;66.90
23669;DHT22;12011;47.422;15.018;2023-06-14T13:43:23;19.80;79.00
23669;DHT22;12011;47.422;15.018;2023-06-14T13:45:53;19.80;69.40
23669;DHT22;12011;47.422;15.018;2023-06-14T13:48:22;19.70;68.40
23669;DHT22;12011;47.422;15.018;2023-06-14T13:50:55;19.50;67.40
23669;DHT22;12011;47.422;15.018;2023-06-14T13:53:25;19.40;68.90
23669;DHT22;12011;47.422;15.018;2023-06-14T13:55:54;19.70;70.20
23669;DHT22;12011;47.422;15.018;2023-06-14T13:58:24;19.80;83.20
23669;DHT22;12011;47.422;15.018;2023-06-14T14:00:53;19.70;83.50
23669;DHT22;12011;47.422;15.018;2023-06-14T14:03:23;19.70;71.70
23669;DHT22;12011;47.422;15.018;2023-06-14T14:05:55;19.20;77.10
23669;DHT22;12011;47.422;15.018;2023-06-14T14:08:25;19.00;74.60
23669;DHT22;12011;47.422;15.018;2023-06-14T14:10:54;18.80;78.90
23669;DHT22;12011;47.422;15.018;2023-06-14T14:13:24;19.10;89.80
23669;DHT22;12011;47.422;15.018;2023-06-14T14:15:54;19.00;72.40
23669;DHT22;12011;47.422;15.018;2023-06-14T14:18:23;18.90;77.40
23669;DHT22;12011;47.422;15.018;2023-06-14T14:20:55;19.20;86.20
23669;DHT22;12011;47.422;15.018;2023-06-14T14:23:26;19.30;85.90
23669;DHT22;12011;47.422;15.018;2023-06-14T14:25:56;19.30;74.20
23669;DHT22;12011;47.422;15.018;2023-06-14T14:28:27;19.40;83.70
23669;DHT22;12011;47.422;15.018;2023-06-14T14:30:56;19.50;82.20
23669;DHT22;12011;47.422;15.018;2023-06-14T14:33:26;19.40;67.30
23669;DHT22;12011;47.422;15.018;2023-06-14T14:35:58;19.50;81.10
23669;DHT22;12011;47.422;15.018;2023-06-14T14:38:30;19.40;71.50
23669;DHT22;12011;47.422;15.018;2023-06-14T14:40:59;19.30;70.60
23669;DHT22;12011;47.422;15.018;2023-06-14T14:43:29;19.40;66.20
23669;DHT22;12011;47.422;15.018;2023-06-14T14:45:58;19.70;81.40
23669;DHT22;12011;47.422;15.018;2023-06-14T14:48:28;19.80;83.20
23669;DHT22;12011;47.422;15.018;2023-06-14T14:51:00;19.70;79.40
23669;DHT22;12011;47.422;15.018;2023-06-14T14:53:30;19.70;81.10
23669;DHT22;12011;47.422;15.018;2023-06-14T14:55:59;19.80;86.80
23669;DHT22;12011;47.422;15.018;2023-06-14T14:58:29;19.80;91.20
23669;DHT22;12011;47.422;15.018;2023-06-14T15:00:59;20.00;86.20
23669;DHT22;12011;47.422;15.018;2023-06-14T15:03:28;20.40;75.00
23669;DHT22;12011;47.422;15.018;2023-06-14T15:06:00;21.00;74.90
23669;DHT22;12011;47.422;15.018;2023-06-14T15:08:31;21.20;70.20
23669;DHT22;12011;47.422;15.018;2023-06-14T15:11:00;21.10;75.20
23669;DHT22;12011;47.422;15.018;2023-06-14T15:13:30;21.30;75.60
23669;DHT22;12011;47.422;15.018;2023-06-14T15:15:59;21.30;64.20
23669;DHT22;12011;47.422;15.018;2023-06-14T15:18:29;21.20;67.50
23669;DHT22;12011;47.422;15.018;2023-06-14T15:21:01;20.70;74.60
23669;DHT22;12011;47.422;15.018;2023-06-14T15:23:31;20.20;70.70
23669;DHT22;12011;47.422;15.018;2023-06-14T15:26:00;20.50;81.20
23669;DHT22;12011;47.422;15.018;2023-06-14T15:28:30;20.90;83.30
23669;DHT22;12011;47.422;15.018;2023-06-14T15:31:00;21.00;61.10
23669;DHT22;12011;47.422;15.018;2023-06-14T15:33:29;21.20;80.20
23669;DHT22;12011;47.422;15.018;2023-06-14T15:36:01;21.00;67.90
23669;DHT22;12011;47.422;15.018;2023-06-14T15:38:31;20.90;70.00
23669;DHT22;12011;47.422;15.018;2023-06-14T15:41:01;20.60;67.30
23669;DHT22;12011;47.422;15.018;2023-06-14T15:43:31;20.50;70.90
23669;DHT22;12011;47.422;15.018;2023-06-14T15:46:02;20.60;73.80
23669;DHT22;12011;47.422;15.018;2023-06-14T15:48:32;20.70;66.60
23669;DHT22;12011;47.422;15.018;2023-06-14T15:51:04;20.80;68.20